createdAt,value
2023-01-26T00:01:23.984Z,41.35
2023-01-26T00:03:51.278Z,23.67
2023-01-26T00:06:20.035Z,19.23
2023-01-26T00:08:49.965Z,20.77
2023-01-26T00:11:19.153Z,19.70
2023-01-26T00:13:49.460Z,19.05
2023-01-26T00:16:16.215Z,21.30
2023-01-26T00:18:43.574Z,20.15
2023-01-26T00:21:14.662Z,22.27
2023-01-26T00:23:41.916Z,20.67
2023-01-26T00:26:15.378Z,20.75
2023-01-26T00:28:42.377Z,20.98
2023-01-26T00:31:14.112Z,19.80
2023-01-26T00:33:40.903Z,28.60
2023-01-26T00:36:10.285Z,22.88
2023-01-26T00:38:37.082Z,20.35
2023-01-26T00:41:03.778Z,18.65
2023-01-26T00:43:30.411Z,20.08
2023-01-26T00:45:56.977Z,18.05
2023-01-26T00:48:24.790Z,20.90
2023-01-26T00:50:52.917Z,19.73
2023-01-26T00:53:19.710Z,17.98
2023-01-26T00:55:46.364Z,18.27
2023-01-26T00:58:13.091Z,20.58
2023-01-26T01:00:39.996Z,17.85
2023-01-26T01:03:07.317Z,19.30
2023-01-26T01:05:34.950Z,22.30
2023-01-26T01:08:02.174Z,21.10
2023-01-26T01:10:29.203Z,20.73
2023-01-26T01:12:56.675Z,18.85
2023-01-26T01:15:23.920Z,18.80
2023-01-26T01:17:50.950Z,22.77
2023-01-26T01:20:17.825Z,21.35
2023-01-26T01:22:46.499Z,19.65
2023-01-26T01:25:13.085Z,20.20
2023-01-26T01:27:39.730Z,22.38
2023-01-26T01:30:08.252Z,24.05
2023-01-26T01:32:36.474Z,26.65
2023-01-26T01:35:03.866Z,22.13
2023-01-26T01:37:30.937Z,25.25
2023-01-26T01:39:57.685Z,26.27
2023-01-26T01:42:24.351Z,22.35
2023-01-26T01:45:35.901Z,22.10
2023-01-26T01:48:07.178Z,20.42
2023-01-26T01:50:39.516Z,21.67
2023-01-26T01:53:10.488Z,20.80
2023-01-26T01:55:37.159Z,19.25
2023-01-26T01:58:05.955Z,21.38
2023-01-26T02:00:32.763Z,20.20
2023-01-26T02:03:19.031Z,19.45
2023-01-26T02:06:07.110Z,20.02
2023-01-26T02:08:35.755Z,18.88
2023-01-26T02:11:10.355Z,21.40
2023-01-26T02:13:37.568Z,20.23
2023-01-26T02:16:04.590Z,22.15
2023-01-26T02:18:31.362Z,23.17
2023-01-26T02:21:02.394Z,24.98
2023-01-26T02:23:40.938Z,25.52
2023-01-26T02:26:12.766Z,22.25
2023-01-26T02:28:40.660Z,23.75
2023-01-26T02:31:09.154Z,24.80
2023-01-26T02:33:36.432Z,22.50
2023-01-26T02:36:06.297Z,21.70
2023-01-26T02:38:46.643Z,20.15
2023-01-26T02:41:37.406Z,19.80
2023-01-26T02:44:07.615Z,24.40
2023-01-26T02:46:34.245Z,21.13
2023-01-26T02:49:19.568Z,21.88
2023-01-26T02:51:47.294Z,20.58
2023-01-26T02:54:33.974Z,21.73
2023-01-26T02:57:04.035Z,20.02
2023-01-26T02:59:30.659Z,21.00
2023-01-26T03:01:58.230Z,21.77
2023-01-26T03:04:25.185Z,22.17
2023-01-26T03:06:52.521Z,18.33
2023-01-26T03:09:19.198Z,19.77
2023-01-26T03:11:46.999Z,20.35
2023-01-26T03:14:15.377Z,20.40
2023-01-26T03:16:42.482Z,20.08
2023-01-26T03:19:30.958Z,19.85
2023-01-26T03:22:16.696Z,20.25
2023-01-26T03:25:01.988Z,20.23
2023-01-26T03:27:32.158Z,21.48
2023-01-26T03:30:02.566Z,20.73
2023-01-26T03:32:30.291Z,20.77
2023-01-26T03:34:57.295Z,22.77
2023-01-26T03:37:24.457Z,21.50
2023-01-26T03:40:23.753Z,25.40
2023-01-26T03:43:10.187Z,20.98
2023-01-26T03:45:55.513Z,21.60
2023-01-26T03:48:43.315Z,20.13
2023-01-26T03:51:28.689Z,20.55
2023-01-26T03:54:15.133Z,21.60
2023-01-26T03:56:41.796Z,21.83
2023-01-26T03:59:15.372Z,17.13
2023-01-26T04:02:04.493Z,21.17
2023-01-26T04:04:50.916Z,21.90
2023-01-26T04:07:38.897Z,19.05
2023-01-26T04:10:06.317Z,22.35
2023-01-26T04:12:33.375Z,20.67
2023-01-26T04:15:33.900Z,15.93
2023-01-26T04:18:25.246Z,22.42
2023-01-26T04:21:10.663Z,22.55
2023-01-26T04:23:40.523Z,20.13
2023-01-26T04:26:07.184Z,21.45
2023-01-26T04:28:35.969Z,21.40
2023-01-26T04:31:04.608Z,19.40
2023-01-26T04:33:32.852Z,21.92
2023-01-26T04:36:06.617Z,22.83
2023-01-26T04:38:35.398Z,20.60
2023-01-26T04:41:02.751Z,20.45
2023-01-26T04:43:32.977Z,22.52
2023-01-26T04:46:03.321Z,20.65
2023-01-26T04:48:30.805Z,22.10
2023-01-26T04:50:59.880Z,22.52
2023-01-26T04:53:27.021Z,20.65
2023-01-26T04:55:54.190Z,22.30
2023-01-26T04:58:21.090Z,21.70
2023-01-26T05:00:55.157Z,24.77
2023-01-26T05:03:22.574Z,21.77
2023-01-26T05:05:50.901Z,23.48
2023-01-26T05:08:20.248Z,21.70
2023-01-26T05:10:47.389Z,24.08
2023-01-26T05:13:24.065Z,21.58
2023-01-26T05:16:29.136Z,20.60
2023-01-26T05:18:58.620Z,22.05
2023-01-26T05:21:40.463Z,21.80
2023-01-26T05:24:11.196Z,22.67
2023-01-26T05:27:16.756Z,21.77
2023-01-26T05:29:44.383Z,23.67
2023-01-26T05:32:11.209Z,22.48
2023-01-26T05:34:37.912Z,22.15
2023-01-26T05:37:05.839Z,23.10
2023-01-26T05:39:33.732Z,20.60
2023-01-26T05:42:01.872Z,22.20
2023-01-26T05:44:34.297Z,23.80
2023-01-26T05:47:07.762Z,23.50
2023-01-26T05:49:34.931Z,22.70
2023-01-26T05:52:01.490Z,22.63
2023-01-26T05:54:29.830Z,21.55
2023-01-26T05:56:57.600Z,25.55
2023-01-26T05:59:25.821Z,21.23
2023-01-26T06:01:52.925Z,21.50
2023-01-26T06:04:19.824Z,22.80
2023-01-26T06:06:58.250Z,21.92
2023-01-26T06:09:30.192Z,23.15
2023-01-26T06:12:22.008Z,18.70
2023-01-26T06:14:58.381Z,19.27
2023-01-26T06:17:33.776Z,21.45
2023-01-26T06:20:03.504Z,21.90
2023-01-26T06:22:31.627Z,21.58
2023-01-26T06:24:59.370Z,21.60
2023-01-26T06:27:25.945Z,19.45
2023-01-26T06:29:53.107Z,23.15
2023-01-26T06:32:20.071Z,27.50
2023-01-26T06:34:53.317Z,29.02
2023-01-26T06:37:20.816Z,26.00
2023-01-26T06:39:48.181Z,27.23
2023-01-26T06:42:14.839Z,25.92
2023-01-26T06:44:41.480Z,23.13
2023-01-26T06:47:08.680Z,22.58
2023-01-26T06:49:38.797Z,22.50
2023-01-26T06:52:28.198Z,24.52
2023-01-26T06:55:00.404Z,21.27
2023-01-26T06:57:48.322Z,22.15
2023-01-26T07:00:50.285Z,23.92
2023-01-26T07:03:26.946Z,23.60
2023-01-26T07:05:53.522Z,23.67
2023-01-26T07:08:20.080Z,24.88
2023-01-26T07:10:46.704Z,24.75
2023-01-26T07:13:13.215Z,29.75
2023-01-26T07:15:39.943Z,35.92
2023-01-26T07:18:06.594Z,24.88
2023-01-26T07:20:33.233Z,24.48
2023-01-26T07:23:00.868Z,36.88
2023-01-26T07:25:27.676Z,26.35
2023-01-26T07:27:58.716Z,23.92
2023-01-26T07:30:26.395Z,28.35
2023-01-26T07:32:53.323Z,29.70
2023-01-26T07:35:19.947Z,22.40
2023-01-26T07:37:46.576Z,24.40
2023-01-26T07:40:13.656Z,24.00
2023-01-26T07:42:40.274Z,22.75
2023-01-26T07:45:20.875Z,24.50
2023-01-26T07:47:48.063Z,24.27
2023-01-26T07:50:14.910Z,26.00
2023-01-26T07:52:43.623Z,24.45
2023-01-26T07:55:10.494Z,35.90
2023-01-26T07:57:37.102Z,28.75
2023-01-26T08:00:04.608Z,25.25
2023-01-26T08:02:38.349Z,26.35
2023-01-26T08:05:05.389Z,22.73
2023-01-26T08:07:32.006Z,21.38
2023-01-26T08:09:59.186Z,24.10
2023-01-26T08:12:26.535Z,22.95
2023-01-26T08:14:53.108Z,25.23
2023-01-26T08:17:19.665Z,27.08
2023-01-26T08:19:46.932Z,26.25
2023-01-26T08:22:13.917Z,25.10
2023-01-26T08:24:40.564Z,31.13
2023-01-26T08:27:07.169Z,21.42
2023-01-26T08:29:33.810Z,29.95
2023-01-26T08:32:03.131Z,23.17
2023-01-26T08:34:29.996Z,22.42
2023-01-26T08:36:56.523Z,23.02
2023-01-26T08:39:23.148Z,28.40
2023-01-26T08:41:49.967Z,21.77
2023-01-26T08:44:16.624Z,19.65
2023-01-26T08:46:46.107Z,24.30
2023-01-26T08:49:12.988Z,26.35
2023-01-26T08:51:39.492Z,28.23
2023-01-26T08:54:10.697Z,28.13
2023-01-26T08:56:37.366Z,27.38
2023-01-26T08:59:03.863Z,27.08
2023-01-26T09:01:30.505Z,24.20
2023-01-26T09:03:58.305Z,30.33
2023-01-26T09:06:25.360Z,26.13
2023-01-26T09:08:51.856Z,25.00
2023-01-26T09:11:18.497Z,30.73
2023-01-26T09:13:45.010Z,30.90
2023-01-26T09:16:17.473Z,35.13
2023-01-26T09:18:44.133Z,26.70
2023-01-26T09:21:10.719Z,42.13
2023-01-26T09:23:38.656Z,25.65
2023-01-26T09:26:05.469Z,25.40
2023-01-26T09:28:32.157Z,22.90
2023-01-26T09:31:04.787Z,22.95
2023-01-26T09:33:31.838Z,23.40
2023-01-26T09:36:06.679Z,22.90
2023-01-26T09:38:33.545Z,22.63
2023-01-26T09:41:33.228Z,25.40
2023-01-26T09:44:23.394Z,22.85
2023-01-26T09:47:15.895Z,23.60
2023-01-26T09:49:57.558Z,24.98
2023-01-26T09:53:03.318Z,23.95
2023-01-26T09:55:31.666Z,23.67
2023-01-26T09:58:05.496Z,26.67
2023-01-26T10:00:52.082Z,27.63
2023-01-26T10:03:50.313Z,27.15
2023-01-26T10:06:29.521Z,24.13
2023-01-26T10:09:30.023Z,22.23
2023-01-26T10:12:00.941Z,46.10
2023-01-26T10:14:40.551Z,25.58
2023-01-26T10:17:15.197Z,24.83
2023-01-26T10:19:55.721Z,25.75
2023-01-26T10:22:45.292Z,23.50
2023-01-26T10:25:39.434Z,24.90
2023-01-26T10:28:30.593Z,23.15
2023-01-26T10:30:57.619Z,25.50
2023-01-26T10:33:33.703Z,21.20
2023-01-26T10:36:06.616Z,24.73
2023-01-26T10:38:33.198Z,29.00
2023-01-26T10:41:04.981Z,25.80
2023-01-26T10:43:36.229Z,24.25
2023-01-26T10:46:04.482Z,25.13
2023-01-26T10:48:31.320Z,23.35
2023-01-26T10:51:19.993Z,24.05
2023-01-26T10:53:46.687Z,24.92
2023-01-26T10:56:20.271Z,23.38
2023-01-26T10:58:52.568Z,24.63
2023-01-26T11:04:04.624Z,22.15
2023-01-26T11:06:31.816Z,21.40
2023-01-26T11:09:13.679Z,25.30
2023-01-26T11:11:41.057Z,21.55
2023-01-26T11:14:19.279Z,25.48
2023-01-26T11:17:05.716Z,27.10
2023-01-26T11:19:57.587Z,23.02
2023-01-26T11:22:52.274Z,22.98
2023-01-26T11:25:29.399Z,22.77
2023-01-26T11:28:00.313Z,22.48
2023-01-26T11:30:56.023Z,26.05
2023-01-26T11:33:28.511Z,25.70
2023-01-26T11:36:04.466Z,25.80
2023-01-26T11:38:39.090Z,27.17
2023-01-26T11:41:20.814Z,25.77
2023-01-26T11:43:50.202Z,23.75
2023-01-26T11:46:42.926Z,21.35
2023-01-26T11:49:34.180Z,22.17
2023-01-26T11:52:25.049Z,22.83
2023-01-26T11:55:15.033Z,19.38
2023-01-26T11:57:53.761Z,22.08
2023-01-26T12:00:31.223Z,22.50
2023-01-26T12:03:06.291Z,20.95
2023-01-26T12:05:46.231Z,26.65
2023-01-26T12:08:22.274Z,23.38
2023-01-26T12:10:58.054Z,23.08
2023-01-26T12:13:40.660Z,27.20
2023-01-26T12:16:16.782Z,25.23
2023-01-26T12:19:09.259Z,22.02
2023-01-26T12:21:41.701Z,24.90
2023-01-26T12:25:01.099Z,45.80
2023-01-26T12:27:50.449Z,25.30
2023-01-26T12:30:23.808Z,31.95
2023-01-26T12:32:51.216Z,34.53
2023-01-26T12:35:32.624Z,90.97
2023-01-26T12:38:18.023Z,37.40
2023-01-26T12:40:52.847Z,24.65
2023-01-26T12:43:37.649Z,23.45
2023-01-26T12:46:07.972Z,22.90
2023-01-26T12:48:41.520Z,24.35
2023-01-26T12:51:21.898Z,22.50
2023-01-26T12:53:58.184Z,24.25
2023-01-26T12:56:49.721Z,22.20
2023-01-26T12:59:39.429Z,25.50
2023-01-26T13:02:15.184Z,20.10
2023-01-26T13:04:43.729Z,20.58
2023-01-26T13:07:31.093Z,22.45
2023-01-26T13:10:17.687Z,23.80
2023-01-26T13:13:00.692Z,23.67
2023-01-26T13:15:30.364Z,25.00
2023-01-26T13:18:04.430Z,24.13
2023-01-26T13:20:40.312Z,22.38
2023-01-26T13:23:28.575Z,23.40
2023-01-26T13:26:16.803Z,23.90
2023-01-26T13:28:45.097Z,25.13
2023-01-26T13:31:12.737Z,23.30
2023-01-26T13:33:41.148Z,22.40
2023-01-26T13:36:16.276Z,24.38
2023-01-26T13:38:47.522Z,21.58
2023-01-26T13:41:19.487Z,22.13
2023-01-26T13:43:52.272Z,22.73
2023-01-26T13:48:55.431Z,26.35
2023-01-26T13:54:13.446Z,22.98
2023-01-26T13:56:59.048Z,24.27
2023-01-26T13:59:25.860Z,23.30
2023-01-26T14:01:54.638Z,24.95
2023-01-26T14:04:23.695Z,24.52
2023-01-26T14:07:15.586Z,23.90
2023-01-26T14:09:48.796Z,21.70
2023-01-26T14:12:42.793Z,27.35
2023-01-26T14:15:24.579Z,23.80
2023-01-26T14:17:56.718Z,26.42
2023-01-26T14:20:32.964Z,27.48
2023-01-26T14:23:10.230Z,27.85
2023-01-26T14:25:38.148Z,26.25
2023-01-26T14:28:04.758Z,22.85
2023-01-26T14:30:34.249Z,28.55
2023-01-26T14:33:04.986Z,29.45
2023-01-26T14:35:32.253Z,23.80
2023-01-26T14:38:13.433Z,24.13
2023-01-26T14:40:49.110Z,24.33
2023-01-26T14:43:15.829Z,26.23
2023-01-26T14:45:55.613Z,28.80
2023-01-26T14:48:29.165Z,27.67
2023-01-26T14:50:56.301Z,28.60
2023-01-26T14:53:25.304Z,25.90
2023-01-26T14:55:53.584Z,24.20
2023-01-26T14:58:28.127Z,24.75
2023-01-26T15:00:58.440Z,30.85
2023-01-26T15:03:34.115Z,29.52
2023-01-26T15:06:21.253Z,29.65
2023-01-26T15:09:05.275Z,29.70
2023-01-26T15:11:58.527Z,30.27
2023-01-26T15:14:38.370Z,28.90
2023-01-26T15:17:05.812Z,33.80
2023-01-26T15:19:40.407Z,26.25
2023-01-26T15:22:20.745Z,31.08
2023-01-26T15:24:58.882Z,33.75
2023-01-26T15:27:31.183Z,34.92
2023-01-26T15:29:59.716Z,33.30
2023-01-26T15:32:32.305Z,24.30
2023-01-26T15:35:32.391Z,27.13
2023-01-26T15:38:06.377Z,33.05
2023-01-26T15:40:33.011Z,35.58
2023-01-26T15:43:12.407Z,37.05
2023-01-26T15:45:52.212Z,27.88
2023-01-26T15:48:19.426Z,32.17
2023-01-26T15:50:48.417Z,32.65
2023-01-26T15:53:17.003Z,34.22
2023-01-26T15:55:44.341Z,37.60
2023-01-26T15:58:11.273Z,36.92
2023-01-26T16:00:39.110Z,38.85
2023-01-26T16:03:13.877Z,33.10
2023-01-26T16:05:40.486Z,35.00
2023-01-26T16:08:06.985Z,30.67
2023-01-26T16:10:34.524Z,35.30
2023-01-26T16:13:01.049Z,28.40
2023-01-26T16:15:39.422Z,25.10
2023-01-26T16:18:06.252Z,27.88
2023-01-26T16:20:34.093Z,29.67
2023-01-26T16:23:00.864Z,28.73
2023-01-26T16:25:29.893Z,29.98
2023-01-26T16:27:57.963Z,37.28
2023-01-26T16:30:25.381Z,40.92
2023-01-26T16:32:53.045Z,42.03
2023-01-26T16:35:22.896Z,31.92
2023-01-26T16:37:49.824Z,43.80
2023-01-26T16:40:18.746Z,28.55
2023-01-26T16:42:49.676Z,33.03
2023-01-26T16:45:20.194Z,32.47
2023-01-26T16:47:49.796Z,27.77
2023-01-26T16:50:16.597Z,30.98
2023-01-26T16:52:43.215Z,32.28
2023-01-26T16:55:13.688Z,29.73
2023-01-26T16:57:41.852Z,32.92
2023-01-26T17:00:19.738Z,31.67
2023-01-26T17:02:52.037Z,30.95
2023-01-26T17:07:46.856Z,41.33
2023-01-26T17:10:15.217Z,39.17
2023-01-26T17:12:42.336Z,34.78
2023-01-26T17:15:12.002Z,35.30
2023-01-26T17:17:38.772Z,35.13
2023-01-26T17:20:18.405Z,40.42
2023-01-26T17:22:45.826Z,37.03
2023-01-26T17:25:16.017Z,33.92
2023-01-26T17:27:43.712Z,38.97
2023-01-26T17:30:10.977Z,36.50
2023-01-26T17:32:37.743Z,35.95
2023-01-26T17:35:04.487Z,37.03
2023-01-26T17:37:31.586Z,34.65
2023-01-26T17:39:58.226Z,36.10
2023-01-26T17:42:25.876Z,33.22
2023-01-26T17:44:52.453Z,37.17
2023-01-26T17:47:19.159Z,32.60
2023-01-26T17:49:45.666Z,36.58
2023-01-26T17:52:14.369Z,37.88
2023-01-26T17:54:41.280Z,40.75
2023-01-26T17:57:08.621Z,36.80
2023-01-26T17:59:35.241Z,46.28
2023-01-26T18:02:02.640Z,43.65
2023-01-26T18:04:31.336Z,37.13
2023-01-26T18:09:19.112Z,37.42
2023-01-26T18:11:45.897Z,38.72
2023-01-26T18:14:12.437Z,43.08
2023-01-26T18:16:39.097Z,42.42
2023-01-26T18:19:05.870Z,34.03
2023-01-26T18:21:34.774Z,34.45
2023-01-26T18:24:03.807Z,34.50
2023-01-26T18:26:33.789Z,36.50
2023-01-26T18:29:00.500Z,41.58
2023-01-26T18:31:33.161Z,40.33
2023-01-26T18:34:00.843Z,36.80
2023-01-26T18:36:28.574Z,30.90
2023-01-26T18:38:58.639Z,32.75
2023-01-26T18:41:26.447Z,34.92
2023-01-26T18:43:54.957Z,40.63
2023-01-26T18:46:22.475Z,36.50
2023-01-26T18:48:49.517Z,40.03
2023-01-26T18:51:18.200Z,39.92
2023-01-26T18:53:45.315Z,39.30
2023-01-26T18:56:14.173Z,36.88
2023-01-26T18:58:41.932Z,30.48
2023-01-26T19:01:12.969Z,36.15
2023-01-26T19:03:41.635Z,34.33
2023-01-26T19:06:09.278Z,36.10
2023-01-26T19:08:35.923Z,44.45
2023-01-26T19:11:07.489Z,45.28
2023-01-26T19:13:35.909Z,41.90
2023-01-26T19:16:02.723Z,39.70
2023-01-26T19:18:29.480Z,38.47
2023-01-26T19:21:00.979Z,36.63
2023-01-26T19:23:31.516Z,36.08
2023-01-26T19:25:58.255Z,33.83
2023-01-26T19:28:24.778Z,37.50
2023-01-26T19:30:51.443Z,35.03
2023-01-26T19:33:28.807Z,34.13
2023-01-26T19:35:56.607Z,34.95
2023-01-26T19:38:24.033Z,41.97
2023-01-26T19:40:52.090Z,37.55
2023-01-26T19:43:23.807Z,33.70
2023-01-26T19:45:55.645Z,30.20
2023-01-26T19:48:24.537Z,34.25
2023-01-26T19:51:24.235Z,36.13
2023-01-26T19:53:55.179Z,36.42
2023-01-26T19:56:25.907Z,36.90
2023-01-26T19:58:54.510Z,35.60
2023-01-26T20:01:21.835Z,36.30
2023-01-26T20:03:53.459Z,35.38
2023-01-26T20:06:23.219Z,41.15
2023-01-26T20:08:49.964Z,46.00
2023-01-26T20:11:17.378Z,35.58
2023-01-26T20:13:43.966Z,43.55
2023-01-26T20:16:12.127Z,45.33
2023-01-26T20:18:38.816Z,43.97
2023-01-26T20:21:07.075Z,36.72
2023-01-26T20:23:34.745Z,43.45
2023-01-26T20:26:09.371Z,44.53
2023-01-26T20:28:37.816Z,40.90
2023-01-26T20:31:16.991Z,41.08
2023-01-26T20:33:47.535Z,40.08
2023-01-26T20:36:18.426Z,42.58
2023-01-26T20:38:48.350Z,35.90
2023-01-26T20:41:18.608Z,35.85
2023-01-26T20:43:58.796Z,36.00
2023-01-26T20:46:29.532Z,37.45
2023-01-26T20:48:57.079Z,40.25
2023-01-26T20:53:36.621Z,40.20
2023-01-26T20:56:09.045Z,35.60
2023-01-26T21:00:54.358Z,37.72
2023-01-26T21:03:21.146Z,36.50
2023-01-26T21:05:50.007Z,36.58
2023-01-26T21:08:16.607Z,38.25
2023-01-26T21:10:46.065Z,33.72
2023-01-26T21:13:12.754Z,36.78
2023-01-26T21:15:40.157Z,36.55
2023-01-26T21:18:06.724Z,39.72
2023-01-26T21:20:33.282Z,37.28
2023-01-26T21:23:00.010Z,35.90
2023-01-26T21:25:26.841Z,41.47
2023-01-26T21:27:53.589Z,40.58
2023-01-26T21:30:20.419Z,41.00
2023-01-26T21:32:47.355Z,41.40
2023-01-26T21:35:15.976Z,36.38
2023-01-26T21:37:42.723Z,38.42
2023-01-26T21:40:10.542Z,44.45
2023-01-26T21:42:37.469Z,39.47
2023-01-26T21:45:23.165Z,40.92
2023-01-26T21:48:09.773Z,41.85
2023-01-26T21:50:56.044Z,41.05
2023-01-26T21:53:25.585Z,44.78
2023-01-26T21:55:52.106Z,44.75
2023-01-26T21:58:37.561Z,42.72
2023-01-26T22:01:09.098Z,43.65
2023-01-26T22:03:36.792Z,41.58
2023-01-26T22:06:04.305Z,41.03
2023-01-26T22:08:31.108Z,43.42
2023-01-26T22:10:57.948Z,44.22
2023-01-26T22:13:26.371Z,45.20
2023-01-26T22:15:52.869Z,41.72
2023-01-26T22:18:19.504Z,42.72
2023-01-26T22:20:46.268Z,39.60
2023-01-26T22:23:13.866Z,43.25
2023-01-26T22:25:41.154Z,46.85
2023-01-26T22:28:08.290Z,39.53
2023-01-26T22:30:34.909Z,40.20
2023-01-26T22:33:01.792Z,37.83
2023-01-26T22:35:30.118Z,40.00
2023-01-26T22:37:56.978Z,40.55
2023-01-26T22:40:24.726Z,37.40
2023-01-26T22:42:54.429Z,36.47
2023-01-26T22:45:21.577Z,37.40
2023-01-26T22:47:49.121Z,38.75
2023-01-26T22:50:16.660Z,37.90
2023-01-26T22:52:46.223Z,43.15
2023-01-26T22:55:12.927Z,37.67
2023-01-26T22:57:39.727Z,36.05
2023-01-26T23:00:07.104Z,36.47
2023-01-26T23:02:33.755Z,39.33
2023-01-26T23:05:00.278Z,38.08
2023-01-26T23:07:26.859Z,36.17
2023-01-26T23:09:53.378Z,39.63
2023-01-26T23:12:19.959Z,44.75
2023-01-26T23:14:46.464Z,46.65
2023-01-26T23:17:13.235Z,38.22
2023-01-26T23:19:39.805Z,35.78
2023-01-26T23:22:06.543Z,35.20
2023-01-26T23:24:33.085Z,35.75
2023-01-26T23:26:59.815Z,36.63
2023-01-26T23:29:26.446Z,43.90
2023-01-26T23:31:53.532Z,38.53
2023-01-26T23:34:21.232Z,43.47
2023-01-26T23:36:47.921Z,40.85
2023-01-26T23:39:14.636Z,38.47
2023-01-26T23:41:41.492Z,39.30
2023-01-26T23:44:08.019Z,41.38
2023-01-26T23:46:34.676Z,44.58
2023-01-26T23:49:01.588Z,43.90
2023-01-26T23:51:28.220Z,41.83
2023-01-26T23:53:55.708Z,43.67
2023-01-26T23:56:23.333Z,46.30
2023-01-26T23:58:49.885Z,43.25
